sensor_id;sensor_type;location;lat;lon;timestamp;temperature;humidity
75321;DHT22;68337;52.196;5.660;2023-12-28T00:00:34;9.30;99.90
75321;DHT22;68337;52.196;5.660;2023-12-28T00:03:00;9.30;99.90
75321;DHT22;68337;52.196;5.660;2023-12-28T00:05:25;9.40;99.90
75321;DHT22;68337;52.196;5.660;2023-12-28T00:07:51;9.40;99.90
75321;DHT22;68337;52.196;5.660;2023-12-28T00:10:24;9.40;99.90
75321;DHT22;68337;52.196;5.660;2023-12-28T00:12:50;9.50;99.90
75321;DHT22;68337;52.196;5.660;2023-12-28T00:15:16;9.50;99.90
75321;DHT22;68337;52.196;5.660;2023-12-28T00:17:41;9.60;99.90
75321;DHT22;68337;52.196;5.660;2023-12-28T00:20:07;9.60;99.90
75321;DHT22;68337;52.196;5.660;2023-12-28T00:22:33;9.70;99.90
75321;DHT22;68337;52.196;5.660;2023-12-28T00:24:59;9.80;99.90
75321;DHT22;68337;52.196;5.660;2023-12-28T00:27:25;9.80;99.90
75321;DHT22;68337;52.196;5.660;2023-12-28T00:29:50;9.80;99.90
75321;DHT22;68337;52.196;5.660;2023-12-28T00:32:16;9.80;99.90
75321;DHT22;68337;52.196;5.660;2023-12-28T00:34:42;9.90;99.90
75321;DHT22;68337;52.196;5.660;2023-12-28T00:37:07;9.90;99.90
75321;DHT22;68337;52.196;5.660;2023-12-28T00:39:33;10.00;99.90
75321;DHT22;68337;52.196;5.660;2023-12-28T00:42:00;10.00;99.90
75321;DHT22;68337;52.196;5.660;2023-12-28T00:44:26;10.00;99.90
75321;DHT22;68337;52.196;5.660;2023-12-28T00:46:52;10.00;99.90
75321;DHT22;68337;52.196;5.660;2023-12-28T00:49:17;10.00;99.90
75321;DHT22;68337;52.196;5.660;2023-12-28T00:51:43;10.00;99.90
75321;DHT22;68337;52.196;5.660;2023-12-28T00:54:09;10.00;99.90
75321;DHT22;68337;52.196;5.660;2023-12-28T00:56:34;10.00;99.90
75321;DHT22;68337;52.196;5.660;2023-12-28T00:59:00;10.00;99.90
75321;DHT22;68337;52.196;5.660;2023-12-28T01:01:27;10.00;99.90
75321;DHT22;68337;52.196;5.660;2023-12-28T01:03:56;10.00;99.90
75321;DHT22;68337;52.196;5.660;2023-12-28T01:06:21;9.90;99.90
75321;DHT22;68337;52.196;5.660;2023-12-28T01:08:47;9.90;99.90
75321;DHT22;68337;52.196;5.660;2023-12-28T01:11:13;9.90;99.90
75321;DHT22;68337;52.196;5.660;2023-12-28T01:13:38;9.80;99.90
75321;DHT22;68337;52.196;5.660;2023-12-28T01:16:05;9.80;99.90
75321;DHT22;68337;52.196;5.660;2023-12-28T01:18:30;9.80;99.90
75321;DHT22;68337;52.196;5.660;2023-12-28T01:20:56;9.80;99.90
75321;DHT22;68337;52.196;5.660;2023-12-28T01:23:22;9.80;99.90
75321;DHT22;68337;52.196;5.660;2023-12-28T01:25:47;9.80;99.90
75321;DHT22;68337;52.196;5.660;2023-12-28T01:28:13;9.80;99.90
75321;DHT22;68337;52.196;5.660;2023-12-28T01:30:39;9.70;99.90
75321;DHT22;68337;52.196;5.660;2023-12-28T01:33:04;9.70;99.90
75321;DHT22;68337;52.196;5.660;2023-12-28T01:35:30;9.60;99.90
75321;DHT22;68337;52.196;5.660;2023-12-28T01:37:56;9.60;99.90
75321;DHT22;68337;52.196;5.660;2023-12-28T01:40:22;9.60;99.90
75321;DHT22;68337;52.196;5.660;2023-12-28T01:42:48;9.60;99.90
75321;DHT22;68337;52.196;5.660;2023-12-28T01:45:14;9.60;99.90
75321;DHT22;68337;52.196;5.660;2023-12-28T01:47:40;9.50;99.90
75321;DHT22;68337;52.196;5.660;2023-12-28T01:50:06;9.50;99.90
75321;DHT22;68337;52.196;5.660;2023-12-28T01:52:32;9.40;99.90
75321;DHT22;68337;52.196;5.660;2023-12-28T01:54:58;9.40;99.90
75321;DHT22;68337;52.196;5.660;2023-12-28T01:57:24;9.40;99.90
75321;DHT22;68337;52.196;5.660;2023-12-28T01:59:51;9.40;99.90
75321;DHT22;68337;52.196;5.660;2023-12-28T02:02:17;9.50;99.90
75321;DHT22;68337;52.196;5.660;2023-12-28T02:04:44;9.40;99.90
75321;DHT22;68337;52.196;5.660;2023-12-28T02:07:14;9.40;99.90
75321;DHT22;68337;52.196;5.660;2023-12-28T02:09:40;9.40;99.90
75321;DHT22;68337;52.196;5.660;2023-12-28T02:12:06;9.40;99.90
75321;DHT22;68337;52.196;5.660;2023-12-28T02:14:32;9.40;99.90
75321;DHT22;68337;52.196;5.660;2023-12-28T02:17:10;9.40;99.90
75321;DHT22;68337;52.196;5.660;2023-12-28T02:19:50;9.40;99.90
75321;DHT22;68337;52.196;5.660;2023-12-28T02:22:23;9.40;99.90
75321;DHT22;68337;52.196;5.660;2023-12-28T02:25:05;9.30;99.90
75321;DHT22;68337;52.196;5.660;2023-12-28T02:27:44;9.30;99.90
75321;DHT22;68337;52.196;5.660;2023-12-28T02:30:16;9.40;99.90
75321;DHT22;68337;52.196;5.660;2023-12-28T02:35:51;9.40;99.90
75321;DHT22;68337;52.196;5.660;2023-12-28T02:38:18;9.40;99.90
75321;DHT22;68337;52.196;5.660;2023-12-28T02:40:44;9.40;99.90
75321;DHT22;68337;52.196;5.660;2023-12-28T02:43:11;9.40;99.90
75321;DHT22;68337;52.196;5.660;2023-12-28T02:45:38;9.40;99.90
75321;DHT22;68337;52.196;5.660;2023-12-28T02:48:05;9.40;99.90
75321;DHT22;68337;52.196;5.660;2023-12-28T02:50:31;9.40;99.90
75321;DHT22;68337;52.196;5.660;2023-12-28T02:52:57;9.40;99.90
75321;DHT22;68337;52.196;5.660;2023-12-28T02:55:23;9.40;99.90
75321;DHT22;68337;52.196;5.660;2023-12-28T02:57:50;9.40;99.90
75321;DHT22;68337;52.196;5.660;2023-12-28T03:00:16;9.50;99.90
75321;DHT22;68337;52.196;5.660;2023-12-28T03:02:42;9.50;99.90
75321;DHT22;68337;52.196;5.660;2023-12-28T03:05:08;9.60;99.90
75321;DHT22;68337;52.196;5.660;2023-12-28T03:07:34;9.50;99.90
75321;DHT22;68337;52.196;5.660;2023-12-28T03:10:01;9.60;99.90
75321;DHT22;68337;52.196;5.660;2023-12-28T03:12:27;9.60;99.90
75321;DHT22;68337;52.196;5.660;2023-12-28T03:14:53;9.60;99.90
75321;DHT22;68337;52.196;5.660;2023-12-28T03:17:19;9.60;99.90
75321;DHT22;68337;52.196;5.660;2023-12-28T03:19:44;9.60;99.90
75321;DHT22;68337;52.196;5.660;2023-12-28T03:22:10;9.50;99.90
75321;DHT22;68337;52.196;5.660;2023-12-28T03:24:39;9.50;99.90
75321;DHT22;68337;52.196;5.660;2023-12-28T03:27:06;9.50;99.90
75321;DHT22;68337;52.196;5.660;2023-12-28T03:29:33;9.60;99.90
75321;DHT22;68337;52.196;5.660;2023-12-28T03:31:58;9.60;99.90
75321;DHT22;68337;52.196;5.660;2023-12-28T03:34:24;9.70;99.90
75321;DHT22;68337;52.196;5.660;2023-12-28T03:36:52;9.70;99.90
75321;DHT22;68337;52.196;5.660;2023-12-28T03:39:18;9.70;99.90
75321;DHT22;68337;52.196;5.660;2023-12-28T03:41:44;9.70;99.90
75321;DHT22;68337;52.196;5.660;2023-12-28T03:44:09;9.80;99.90
75321;DHT22;68337;52.196;5.660;2023-12-28T03:46:35;9.90;99.90
75321;DHT22;68337;52.196;5.660;2023-12-28T03:49:01;9.90;99.90
75321;DHT22;68337;52.196;5.660;2023-12-28T03:51:27;9.90;99.90
75321;DHT22;68337;52.196;5.660;2023-12-28T03:53:52;10.00;99.90
75321;DHT22;68337;52.196;5.660;2023-12-28T03:56:23;10.00;99.90
75321;DHT22;68337;52.196;5.660;2023-12-28T03:58:49;9.90;99.90
75321;DHT22;68337;52.196;5.660;2023-12-28T04:01:21;10.00;99.90
75321;DHT22;68337;52.196;5.660;2023-12-28T04:03:47;10.00;99.90
75321;DHT22;68337;52.196;5.660;2023-12-28T04:06:13;10.00;99.90
75321;DHT22;68337;52.196;5.660;2023-12-28T04:08:40;10.00;99.90
75321;DHT22;68337;52.196;5.660;2023-12-28T04:11:06;10.00;99.90
75321;DHT22;68337;52.196;5.660;2023-12-28T04:13:32;10.00;99.90
75321;DHT22;68337;52.196;5.660;2023-12-28T04:15:58;10.00;99.90
75321;DHT22;68337;52.196;5.660;2023-12-28T04:18:23;10.00;99.90
75321;DHT22;68337;52.196;5.660;2023-12-28T04:20:49;10.00;99.90
75321;DHT22;68337;52.196;5.660;2023-12-28T04:23:15;9.90;99.90
75321;DHT22;68337;52.196;5.660;2023-12-28T04:25:41;10.00;99.90
75321;DHT22;68337;52.196;5.660;2023-12-28T04:28:07;10.00;99.90
75321;DHT22;68337;52.196;5.660;2023-12-28T04:30:33;9.90;99.90
75321;DHT22;68337;52.196;5.660;2023-12-28T04:32:59;9.90;99.90
75321;DHT22;68337;52.196;5.660;2023-12-28T04:35:25;10.00;99.90
75321;DHT22;68337;52.196;5.660;2023-12-28T04:37:51;10.00;99.90
75321;DHT22;68337;52.196;5.660;2023-12-28T04:40:16;10.00;99.90
75321;DHT22;68337;52.196;5.660;2023-12-28T04:42:43;10.00;99.90
75321;DHT22;68337;52.196;5.660;2023-12-28T04:45:09;10.00;99.90
75321;DHT22;68337;52.196;5.660;2023-12-28T04:47:36;10.00;99.90
75321;DHT22;68337;52.196;5.660;2023-12-28T04:50:05;9.90;99.90
75321;DHT22;68337;52.196;5.660;2023-12-28T04:52:31;10.00;99.90
75321;DHT22;68337;52.196;5.660;2023-12-28T04:54:57;10.00;99.90
75321;DHT22;68337;52.196;5.660;2023-12-28T04:57:22;10.10;99.90
75321;DHT22;68337;52.196;5.660;2023-12-28T04:59:53;10.00;99.90
75321;DHT22;68337;52.196;5.660;2023-12-28T05:02:19;10.00;99.90
75321;DHT22;68337;52.196;5.660;2023-12-28T05:04:45;10.00;99.90
75321;DHT22;68337;52.196;5.660;2023-12-28T05:07:10;10.00;99.90
75321;DHT22;68337;52.196;5.660;2023-12-28T05:09:36;10.10;99.90
75321;DHT22;68337;52.196;5.660;2023-12-28T05:12:02;10.10;99.90
75321;DHT22;68337;52.196;5.660;2023-12-28T05:14:28;10.10;99.90
75321;DHT22;68337;52.196;5.660;2023-12-28T05:16:54;10.10;99.90
75321;DHT22;68337;52.196;5.660;2023-12-28T05:19:19;10.10;99.90
75321;DHT22;68337;52.196;5.660;2023-12-28T05:21:45;10.10;99.90
75321;DHT22;68337;52.196;5.660;2023-12-28T05:24:12;10.10;99.90
75321;DHT22;68337;52.196;5.660;2023-12-28T05:26:38;10.10;99.90
75321;DHT22;68337;52.196;5.660;2023-12-28T05:29:04;10.20;99.90
75321;DHT22;68337;52.196;5.660;2023-12-28T05:31:29;10.20;99.90
75321;DHT22;68337;52.196;5.660;2023-12-28T05:33:55;10.10;99.90
75321;DHT22;68337;52.196;5.660;2023-12-28T05:36:22;10.20;99.90
75321;DHT22;68337;52.196;5.660;2023-12-28T05:38:48;10.20;99.90
75321;DHT22;68337;52.196;5.660;2023-12-28T05:41:13;10.10;99.90
75321;DHT22;68337;52.196;5.660;2023-12-28T05:43:39;10.20;99.90
75321;DHT22;68337;52.196;5.660;2023-12-28T05:46:05;10.20;99.90
75321;DHT22;68337;52.196;5.660;2023-12-28T05:48:30;10.20;99.90
75321;DHT22;68337;52.196;5.660;2023-12-28T05:51:00;10.30;99.90
75321;DHT22;68337;52.196;5.660;2023-12-28T05:53:26;10.20;99.90
75321;DHT22;68337;52.196;5.660;2023-12-28T05:55:53;10.20;99.90
75321;DHT22;68337;52.196;5.660;2023-12-28T05:58:19;10.30;99.90
75321;DHT22;68337;52.196;5.660;2023-12-28T06:00:44;10.30;99.90
75321;DHT22;68337;52.196;5.660;2023-12-28T06:03:12;10.30;99.90
75321;DHT22;68337;52.196;5.660;2023-12-28T06:05:37;10.30;99.90
75321;DHT22;68337;52.196;5.660;2023-12-28T06:08:04;10.30;99.90
75321;DHT22;68337;52.196;5.660;2023-12-28T06:10:29;10.40;99.90
75321;DHT22;68337;52.196;5.660;2023-12-28T06:12:55;10.40;99.90
75321;DHT22;68337;52.196;5.660;2023-12-28T06:15:21;10.40;99.90
75321;DHT22;68337;52.196;5.660;2023-12-28T06:17:46;10.40;99.90
75321;DHT22;68337;52.196;5.660;2023-12-28T06:20:12;10.40;99.90
75321;DHT22;68337;52.196;5.660;2023-12-28T06:22:38;10.40;99.90
75321;DHT22;68337;52.196;5.660;2023-12-28T06:25:04;10.50;99.90
75321;DHT22;68337;52.196;5.660;2023-12-28T06:27:31;10.50;99.90
75321;DHT22;68337;52.196;5.660;2023-12-28T06:29:56;10.50;99.90
75321;DHT22;68337;52.196;5.660;2023-12-28T06:32:22;10.50;99.90
75321;DHT22;68337;52.196;5.660;2023-12-28T06:34:48;10.60;99.90
75321;DHT22;68337;52.196;5.660;2023-12-28T06:37:14;10.60;99.90
75321;DHT22;68337;52.196;5.660;2023-12-28T06:39:40;10.50;99.90
75321;DHT22;68337;52.196;5.660;2023-12-28T06:42:05;10.50;99.90
75321;DHT22;68337;52.196;5.660;2023-12-28T06:44:31;10.50;99.90
75321;DHT22;68337;52.196;5.660;2023-12-28T06:46:57;10.50;99.90
75321;DHT22;68337;52.196;5.660;2023-12-28T06:49:24;10.50;99.90
75321;DHT22;68337;52.196;5.660;2023-12-28T06:51:50;10.50;99.90
75321;DHT22;68337;52.196;5.660;2023-12-28T06:54:15;10.50;99.90
75321;DHT22;68337;52.196;5.660;2023-12-28T06:56:41;10.50;99.90
75321;DHT22;68337;52.196;5.660;2023-12-28T06:59:07;10.50;99.90
75321;DHT22;68337;52.196;5.660;2023-12-28T07:01:37;10.50;99.90
75321;DHT22;68337;52.196;5.660;2023-12-28T07:04:03;10.50;99.90
75321;DHT22;68337;52.196;5.660;2023-12-28T07:06:29;10.50;99.90
75321;DHT22;68337;52.196;5.660;2023-12-28T07:08:54;10.50;99.90
75321;DHT22;68337;52.196;5.660;2023-12-28T07:11:20;10.50;99.90
75321;DHT22;68337;52.196;5.660;2023-12-28T07:13:46;10.50;99.90
75321;DHT22;68337;52.196;5.660;2023-12-28T07:16:12;10.50;99.90
75321;DHT22;68337;52.196;5.660;2023-12-28T07:18:38;10.60;99.90
75321;DHT22;68337;52.196;5.660;2023-12-28T07:21:04;10.50;99.90
75321;DHT22;68337;52.196;5.660;2023-12-28T07:23:31;10.60;99.90
75321;DHT22;68337;52.196;5.660;2023-12-28T07:25:57;10.50;99.90
75321;DHT22;68337;52.196;5.660;2023-12-28T07:28:23;10.60;99.90
75321;DHT22;68337;52.196;5.660;2023-12-28T07:30:48;10.50;99.90
75321;DHT22;68337;52.196;5.660;2023-12-28T07:33:14;10.50;99.90
75321;DHT22;68337;52.196;5.660;2023-12-28T07:35:40;10.50;99.90
75321;DHT22;68337;52.196;5.660;2023-12-28T07:38:05;10.50;99.90
75321;DHT22;68337;52.196;5.660;2023-12-28T07:40:31;10.50;99.90
75321;DHT22;68337;52.196;5.660;2023-12-28T07:42:57;10.50;99.90
75321;DHT22;68337;52.196;5.660;2023-12-28T07:45:23;10.50;99.90
75321;DHT22;68337;52.196;5.660;2023-12-28T07:47:52;10.40;99.90
75321;DHT22;68337;52.196;5.660;2023-12-28T07:50:19;10.40;99.90
75321;DHT22;68337;52.196;5.660;2023-12-28T07:52:45;10.30;99.90
75321;DHT22;68337;52.196;5.660;2023-12-28T07:55:14;10.30;99.90
75321;DHT22;68337;52.196;5.660;2023-12-28T07:57:42;10.40;99.90
75321;DHT22;68337;52.196;5.660;2023-12-28T08:00:08;10.40;99.90
75321;DHT22;68337;52.196;5.660;2023-12-28T08:02:34;10.40;99.90
75321;DHT22;68337;52.196;5.660;2023-12-28T08:05:00;10.40;99.90
75321;DHT22;68337;52.196;5.660;2023-12-28T08:07:26;10.40;99.90
75321;DHT22;68337;52.196;5.660;2023-12-28T08:09:52;10.40;99.90
75321;DHT22;68337;52.196;5.660;2023-12-28T08:12:17;10.40;99.90
75321;DHT22;68337;52.196;5.660;2023-12-28T08:14:43;10.40;99.90
75321;DHT22;68337;52.196;5.660;2023-12-28T08:17:09;10.40;99.90
75321;DHT22;68337;52.196;5.660;2023-12-28T08:19:35;10.50;99.90
75321;DHT22;68337;52.196;5.660;2023-12-28T08:22:01;10.50;99.90
75321;DHT22;68337;52.196;5.660;2023-12-28T08:24:28;10.50;99.90
75321;DHT22;68337;52.196;5.660;2023-12-28T08:26:53;10.50;99.90
75321;DHT22;68337;52.196;5.660;2023-12-28T08:29:23;10.50;99.90
75321;DHT22;68337;52.196;5.660;2023-12-28T08:31:49;10.50;99.90
75321;DHT22;68337;52.196;5.660;2023-12-28T08:34:15;10.50;99.90
75321;DHT22;68337;52.196;5.660;2023-12-28T08:36:40;10.60;99.90
75321;DHT22;68337;52.196;5.660;2023-12-28T08:39:07;10.60;99.90
75321;DHT22;68337;52.196;5.660;2023-12-28T08:41:32;10.50;99.90
75321;DHT22;68337;52.196;5.660;2023-12-28T08:43:58;10.50;99.90
75321;DHT22;68337;52.196;5.660;2023-12-28T08:46:24;10.60;99.90
75321;DHT22;68337;52.196;5.660;2023-12-28T08:48:50;10.60;99.90
75321;DHT22;68337;52.196;5.660;2023-12-28T08:51:16;10.60;99.90
75321;DHT22;68337;52.196;5.660;2023-12-28T08:53:42;10.60;99.90
75321;DHT22;68337;52.196;5.660;2023-12-28T08:56:16;10.60;99.90
75321;DHT22;68337;52.196;5.660;2023-12-28T08:58:43;10.60;99.90
75321;DHT22;68337;52.196;5.660;2023-12-28T09:01:08;10.60;99.90
75321;DHT22;68337;52.196;5.660;2023-12-28T09:03:34;10.60;99.90
75321;DHT22;68337;52.196;5.660;2023-12-28T09:06:00;10.60;99.90
75321;DHT22;68337;52.196;5.660;2023-12-28T09:08:25;10.70;99.90
75321;DHT22;68337;52.196;5.660;2023-12-28T09:10:51;10.60;99.90
75321;DHT22;68337;52.196;5.660;2023-12-28T09:13:18;10.70;99.90
75321;DHT22;68337;52.196;5.660;2023-12-28T09:15:45;10.70;99.90
75321;DHT22;68337;52.196;5.660;2023-12-28T09:18:11;10.70;99.90
75321;DHT22;68337;52.196;5.660;2023-12-28T09:20:37;10.70;99.90
75321;DHT22;68337;52.196;5.660;2023-12-28T09:23:03;10.80;99.90
75321;DHT22;68337;52.196;5.660;2023-12-28T09:25:28;10.70;99.90
75321;DHT22;68337;52.196;5.660;2023-12-28T09:27:54;10.70;99.90
75321;DHT22;68337;52.196;5.660;2023-12-28T09:30:20;10.80;99.90
75321;DHT22;68337;52.196;5.660;2023-12-28T09:32:46;10.80;99.90
75321;DHT22;68337;52.196;5.660;2023-12-28T09:35:11;10.80;99.90
75321;DHT22;68337;52.196;5.660;2023-12-28T09:37:37;10.80;99.90
75321;DHT22;68337;52.196;5.660;2023-12-28T09:40:03;10.80;99.90
75321;DHT22;68337;52.196;5.660;2023-12-28T09:42:34;10.80;99.90
75321;DHT22;68337;52.196;5.660;2023-12-28T09:45:02;10.80;99.90
75321;DHT22;68337;52.196;5.660;2023-12-28T09:47:31;10.70;99.90
75321;DHT22;68337;52.196;5.660;2023-12-28T09:49:56;10.80;99.90
75321;DHT22;68337;52.196;5.660;2023-12-28T09:52:22;10.80;99.90
75321;DHT22;68337;52.196;5.660;2023-12-28T09:54:48;10.80;99.90
75321;DHT22;68337;52.196;5.660;2023-12-28T09:57:14;10.80;99.90
75321;DHT22;68337;52.196;5.660;2023-12-28T09:59:40;10.90;99.90
75321;DHT22;68337;52.196;5.660;2023-12-28T10:02:06;10.90;99.90
75321;DHT22;68337;52.196;5.660;2023-12-28T10:04:32;10.90;99.90
75321;DHT22;68337;52.196;5.660;2023-12-28T10:06:58;11.00;99.90
75321;DHT22;68337;52.196;5.660;2023-12-28T10:09:24;11.00;99.90
75321;DHT22;68337;52.196;5.660;2023-12-28T10:11:53;11.00;99.90
75321;DHT22;68337;52.196;5.660;2023-12-28T10:14:20;11.00;99.90
75321;DHT22;68337;52.196;5.660;2023-12-28T10:16:46;11.00;99.90
75321;DHT22;68337;52.196;5.660;2023-12-28T10:19:12;11.10;99.90
75321;DHT22;68337;52.196;5.660;2023-12-28T10:21:42;11.10;99.90
75321;DHT22;68337;52.196;5.660;2023-12-28T10:24:10;11.10;99.90
75321;DHT22;68337;52.196;5.660;2023-12-28T10:26:36;11.00;99.90
75321;DHT22;68337;52.196;5.660;2023-12-28T10:29:02;11.00;99.90
75321;DHT22;68337;52.196;5.660;2023-12-28T10:31:29;11.00;99.90
75321;DHT22;68337;52.196;5.660;2023-12-28T10:33:58;10.90;99.90
75321;DHT22;68337;52.196;5.660;2023-12-28T10:36:27;10.90;99.90
75321;DHT22;68337;52.196;5.660;2023-12-28T10:38:54;10.90;99.90
75321;DHT22;68337;52.196;5.660;2023-12-28T10:41:20;10.90;99.90
75321;DHT22;68337;52.196;5.660;2023-12-28T10:46:27;10.90;99.90
75321;DHT22;68337;52.196;5.660;2023-12-28T10:49:16;10.90;99.90
75321;DHT22;68337;52.196;5.660;2023-12-28T10:51:43;10.90;99.90
75321;DHT22;68337;52.196;5.660;2023-12-28T10:54:41;10.90;99.90
75321;DHT22;68337;52.196;5.660;2023-12-28T10:59:52;11.00;99.90
75321;DHT22;68337;52.196;5.660;2023-12-28T11:02:21;11.00;99.90
75321;DHT22;68337;52.196;5.660;2023-12-28T11:04:54;11.00;99.90
75321;DHT22;68337;52.196;5.660;2023-12-28T11:07:21;11.10;99.90
75321;DHT22;68337;52.196;5.660;2023-12-28T11:09:48;11.10;99.90
75321;DHT22;68337;52.196;5.660;2023-12-28T11:12:16;11.20;99.90
75321;DHT22;68337;52.196;5.660;2023-12-28T11:14:44;11.30;99.90
75321;DHT22;68337;52.196;5.660;2023-12-28T11:17:10;11.30;99.90
75321;DHT22;68337;52.196;5.660;2023-12-28T11:19:40;11.30;99.90
75321;DHT22;68337;52.196;5.660;2023-12-28T11:22:08;11.30;99.90
75321;DHT22;68337;52.196;5.660;2023-12-28T11:24:34;11.40;99.90
75321;DHT22;68337;52.196;5.660;2023-12-28T11:27:00;11.40;99.90
75321;DHT22;68337;52.196;5.660;2023-12-28T11:29:29;11.40;99.90
75321;DHT22;68337;52.196;5.660;2023-12-28T11:32:00;11.40;99.90
75321;DHT22;68337;52.196;5.660;2023-12-28T11:34:29;11.40;99.90
75321;DHT22;68337;52.196;5.660;2023-12-28T11:36:57;11.40;99.90
75321;DHT22;68337;52.196;5.660;2023-12-28T11:39:33;11.40;99.90
75321;DHT22;68337;52.196;5.660;2023-12-28T11:42:03;11.40;99.90
75321;DHT22;68337;52.196;5.660;2023-12-28T11:44:39;11.40;99.90
75321;DHT22;68337;52.196;5.660;2023-12-28T11:47:14;11.40;99.90
75321;DHT22;68337;52.196;5.660;2023-12-28T11:49:41;11.40;99.90
75321;DHT22;68337;52.196;5.660;2023-12-28T11:52:08;11.40;99.90
75321;DHT22;68337;52.196;5.660;2023-12-28T11:54:35;11.50;99.90
75321;DHT22;68337;52.196;5.660;2023-12-28T11:57:00;11.50;99.90
75321;DHT22;68337;52.196;5.660;2023-12-28T11:59:27;11.40;99.90
75321;DHT22;68337;52.196;5.660;2023-12-28T12:01:53;11.40;99.90
75321;DHT22;68337;52.196;5.660;2023-12-28T12:04:20;11.40;99.90
75321;DHT22;68337;52.196;5.660;2023-12-28T12:06:46;11.40;99.90
75321;DHT22;68337;52.196;5.660;2023-12-28T12:09:14;11.40;99.90
75321;DHT22;68337;52.196;5.660;2023-12-28T12:11:40;11.30;99.90
75321;DHT22;68337;52.196;5.660;2023-12-28T12:14:12;11.30;99.90
75321;DHT22;68337;52.196;5.660;2023-12-28T12:16:38;11.30;99.90
75321;DHT22;68337;52.196;5.660;2023-12-28T12:19:04;11.40;99.90
75321;DHT22;68337;52.196;5.660;2023-12-28T12:21:33;11.30;99.90
75321;DHT22;68337;52.196;5.660;2023-12-28T12:23:58;11.40;99.90
75321;DHT22;68337;52.196;5.660;2023-12-28T12:26:24;11.30;99.90
75321;DHT22;68337;52.196;5.660;2023-12-28T12:28:51;11.40;99.90
75321;DHT22;68337;52.196;5.660;2023-12-28T12:31:17;11.30;99.90
75321;DHT22;68337;52.196;5.660;2023-12-28T12:33:43;11.40;99.90
75321;DHT22;68337;52.196;5.660;2023-12-28T12:36:11;11.40;99.90
75321;DHT22;68337;52.196;5.660;2023-12-28T12:38:36;11.40;99.90
75321;DHT22;68337;52.196;5.660;2023-12-28T12:41:02;11.40;99.90
75321;DHT22;68337;52.196;5.660;2023-12-28T12:43:28;11.50;99.90
75321;DHT22;68337;52.196;5.660;2023-12-28T12:45:54;11.50;99.90
75321;DHT22;68337;52.196;5.660;2023-12-28T12:48:20;11.60;99.90
75321;DHT22;68337;52.196;5.660;2023-12-28T12:50:46;11.40;99.90
75321;DHT22;68337;52.196;5.660;2023-12-28T12:53:12;11.50;99.90
75321;DHT22;68337;52.196;5.660;2023-12-28T12:55:38;11.50;99.90
75321;DHT22;68337;52.196;5.660;2023-12-28T12:58:05;11.40;99.90
75321;DHT22;68337;52.196;5.660;2023-12-28T13:00:31;11.50;99.90
75321;DHT22;68337;52.196;5.660;2023-12-28T13:03:01;11.60;99.90
75321;DHT22;68337;52.196;5.660;2023-12-28T13:05:28;11.50;99.90
75321;DHT22;68337;52.196;5.660;2023-12-28T13:07:54;11.50;99.90
75321;DHT22;68337;52.196;5.660;2023-12-28T13:10:21;11.50;99.90
75321;DHT22;68337;52.196;5.660;2023-12-28T13:12:47;11.50;99.90
75321;DHT22;68337;52.196;5.660;2023-12-28T13:15:12;11.40;99.90
75321;DHT22;68337;52.196;5.660;2023-12-28T13:17:38;11.50;99.90
75321;DHT22;68337;52.196;5.660;2023-12-28T13:20:05;11.50;99.90
75321;DHT22;68337;52.196;5.660;2023-12-28T13:22:33;11.50;99.90
75321;DHT22;68337;52.196;5.660;2023-12-28T13:24:59;11.60;99.90
75321;DHT22;68337;52.196;5.660;2023-12-28T13:27:26;11.60;99.90
75321;DHT22;68337;52.196;5.660;2023-12-28T13:29:54;11.50;99.90
75321;DHT22;68337;52.196;5.660;2023-12-28T13:32:20;11.50;99.90
75321;DHT22;68337;52.196;5.660;2023-12-28T13:34:46;11.40;99.90
75321;DHT22;68337;52.196;5.660;2023-12-28T13:37:12;11.40;99.90
75321;DHT22;68337;52.196;5.660;2023-12-28T13:39:38;11.40;99.90
75321;DHT22;68337;52.196;5.660;2023-12-28T13:42:06;11.40;99.90
75321;DHT22;68337;52.196;5.660;2023-12-28T13:44:36;11.40;99.90
75321;DHT22;68337;52.196;5.660;2023-12-28T13:47:02;11.30;99.90
75321;DHT22;68337;52.196;5.660;2023-12-28T13:49:28;11.30;99.90
75321;DHT22;68337;52.196;5.660;2023-12-28T13:51:55;11.40;99.90
75321;DHT22;68337;52.196;5.660;2023-12-28T13:54:20;11.40;99.90
75321;DHT22;68337;52.196;5.660;2023-12-28T13:56:46;11.40;99.90
75321;DHT22;68337;52.196;5.660;2023-12-28T13:59:13;11.30;99.90
75321;DHT22;68337;52.196;5.660;2023-12-28T14:01:39;11.30;99.90
75321;DHT22;68337;52.196;5.660;2023-12-28T14:04:05;11.20;99.90
75321;DHT22;68337;52.196;5.660;2023-12-28T14:06:31;11.20;99.90
75321;DHT22;68337;52.196;5.660;2023-12-28T14:08:57;11.20;99.90
75321;DHT22;68337;52.196;5.660;2023-12-28T14:11:26;11.20;99.90
75321;DHT22;68337;52.196;5.660;2023-12-28T14:13:51;11.20;99.90
75321;DHT22;68337;52.196;5.660;2023-12-28T14:16:17;11.20;99.90
75321;DHT22;68337;52.196;5.660;2023-12-28T14:18:43;11.10;99.90
75321;DHT22;68337;52.196;5.660;2023-12-28T14:21:09;11.10;99.90
75321;DHT22;68337;52.196;5.660;2023-12-28T14:23:35;11.10;99.90
75321;DHT22;68337;52.196;5.660;2023-12-28T14:26:14;11.10;99.90
75321;DHT22;68337;52.196;5.660;2023-12-28T14:28:44;11.10;99.90
75321;DHT22;68337;52.196;5.660;2023-12-28T14:31:11;11.00;99.90
75321;DHT22;68337;52.196;5.660;2023-12-28T14:33:37;11.00;99.90
75321;DHT22;68337;52.196;5.660;2023-12-28T14:38:39;11.00;99.90
75321;DHT22;68337;52.196;5.660;2023-12-28T14:41:05;10.90;99.90
75321;DHT22;68337;52.196;5.660;2023-12-28T14:43:30;10.90;99.90
75321;DHT22;68337;52.196;5.660;2023-12-28T14:45:56;10.90;99.90
75321;DHT22;68337;52.196;5.660;2023-12-28T14:48:22;10.80;99.90
75321;DHT22;68337;52.196;5.660;2023-12-28T14:50:47;10.70;99.90
75321;DHT22;68337;52.196;5.660;2023-12-28T14:53:13;10.70;99.90
75321;DHT22;68337;52.196;5.660;2023-12-28T14:55:39;10.70;99.90
75321;DHT22;68337;52.196;5.660;2023-12-28T14:58:04;10.60;99.90
75321;DHT22;68337;52.196;5.660;2023-12-28T15:00:30;10.60;99.90
75321;DHT22;68337;52.196;5.660;2023-12-28T15:02:56;10.40;99.90
75321;DHT22;68337;52.196;5.660;2023-12-28T15:05:21;10.30;99.90
75321;DHT22;68337;52.196;5.660;2023-12-28T15:07:47;10.30;99.90
75321;DHT22;68337;52.196;5.660;2023-12-28T15:10:14;10.40;99.90
75321;DHT22;68337;52.196;5.660;2023-12-28T15:12:40;10.40;99.90
75321;DHT22;68337;52.196;5.660;2023-12-28T15:15:06;10.30;99.90
75321;DHT22;68337;52.196;5.660;2023-12-28T15:17:32;10.40;99.90
75321;DHT22;68337;52.196;5.660;2023-12-28T15:19:58;10.30;99.90
75321;DHT22;68337;52.196;5.660;2023-12-28T15:22:25;10.30;99.90
75321;DHT22;68337;52.196;5.660;2023-12-28T15:24:51;10.30;99.90
75321;DHT22;68337;52.196;5.660;2023-12-28T15:27:19;10.30;99.90
75321;DHT22;68337;52.196;5.660;2023-12-28T15:29:45;10.30;99.90
75321;DHT22;68337;52.196;5.660;2023-12-28T15:32:11;10.30;99.90
75321;DHT22;68337;52.196;5.660;2023-12-28T15:34:36;10.40;99.90
75321;DHT22;68337;52.196;5.660;2023-12-28T15:37:02;10.40;99.90
75321;DHT22;68337;52.196;5.660;2023-12-28T15:39:28;10.50;99.90
75321;DHT22;68337;52.196;5.660;2023-12-28T15:41:53;10.50;99.90